Time;durP1;ratioP1;P1;durP2;ratioP2;P2;SDS_P1;SDS_P2;PMS_P1;PMS_P2;Temp;Humidity;BMP_temperature;BMP_pressure;BME280_temperature;BME280_humidity;BME280_pressure;Samples;Min_cycle;Max_cycle;Signal;HPM_P1;HPM_P2
2021/10/27 00:00:04;;;;;;;;;9.67;7.67;;;;;-147.17;100.00;49588.16;5060256;28;51171;-67
2021/10/27 00:02:29;;;;;;;;;8.00;8.00;;;;;-147.17;100.00;49576.34;5044475;28;51273;-67
2021/10/27 00:04:55;;;;;;;;;12.67;8.67;;;;;-147.17;100.00;49586.19;5066902;28;52093;-67
2021/10/27 00:07:20;;;;;;;;;9.33;7.67;;;;;-147.17;100.00;49560.59;5052095;28;51120;-67
2021/10/27 00:09:47;;;;;;;;;7.00;7.00;;;;;-147.17;100.00;49564.53;5062958;28;51203;-67
2021/10/27 00:12:15;;;;;;;;;8.33;8.33;;;;;-147.17;100.00;49603.91;5051442;28;51229;-66
2021/10/27 00:14:41;;;;;;;;;8.00;7.00;;;;;-147.17;100.00;49570.44;5061143;28;52725;-66
2021/10/27 00:17:06;;;;;;;;;5.67;5.67;;;;;-147.17;100.00;49613.75;5056355;28;51042;-66
2021/10/27 00:19:32;;;;;;;;;7.33;7.00;;;;;-147.17;100.00;49607.84;5052001;28;51182;-67
2021/10/27 00:21:57;;;;;;;;;26.25;24.75;;;;;-147.17;100.00;49576.34;5064579;28;52731;-67
2021/10/27 00:24:22;;;;;;;;;6.33;5.33;;;;;-147.17;100.00;49619.66;5068066;28;51968;-66
2021/10/27 00:26:48;;;;;;;;;11.00;6.67;;;;;-147.17;100.00;49619.66;5070337;28;51232;-66
2021/10/27 00:29:13;;;;;;;;;6.67;6.67;;;;;-147.17;100.00;49584.22;5065234;28;51571;-67
2021/10/27 00:31:39;;;;;;;;;8.00;7.00;;;;;-147.17;100.00;49586.19;5066041;28;51186;-66
2021/10/27 00:34:04;;;;;;;;;7.67;7.67;;;;;-147.17;100.00;49584.22;5055103;28;51610;-66
2021/10/27 00:36:30;;;;;;;;;6.33;6.33;;;;;-147.17;100.00;49592.09;5063878;28;51279;-66
2021/10/27 00:38:55;;;;;;;;;8.33;6.67;;;;;-147.17;100.00;49603.91;5058707;28;51453;-66
2021/10/27 00:41:21;;;;;;;;;7.67;7.33;;;;;-147.17;100.00;49576.34;5054418;28;51713;-66
2021/10/27 00:43:46;;;;;;;;;6.33;6.33;;;;;-147.17;100.00;49582.25;5053548;28;51861;-67
2021/10/27 00:46:20;;;;;;;;;5.33;5.33;;;;;-147.17;100.00;49607.84;5066217;28;51421;-67
2021/10/27 00:48:46;;;;;;;;;8.67;7.00;;;;;-147.17;100.00;49588.16;5065025;28;51110;-67
2021/10/27 00:51:12;;;;;;;;;8.33;6.33;;;;;-147.17;100.00;49605.88;5075110;28;51014;-67
2021/10/27 00:53:39;;;;;;;;;7.00;7.00;;;;;-147.17;100.00;49564.53;5068739;28;51066;-67
2021/10/27 00:56:04;;;;;;;;;8.67;7.67;;;;;-147.17;100.00;49596.03;5055838;28;51211;-67
2021/10/27 00:58:30;;;;;;;;;10.67;9.00;;;;;-147.17;100.00;49568.47;5054502;28;51061;-67
2021/10/27 01:00:55;;;;;;;;;7.33;7.00;;;;;-147.17;100.00;49584.22;5053100;28;51085;-67
2021/10/27 01:03:21;;;;;;;;;8.67;8.00;;;;;-147.17;100.00;49588.16;5045587;28;52959;-67
2021/10/27 01:05:46;;;;;;;;;8.33;7.67;;;;;-147.17;100.00;49584.22;5067404;28;51384;-67
2021/10/27 01:08:12;;;;;;;;;7.67;7.67;;;;;-147.17;100.00;49603.91;5074570;28;51250;-67
2021/10/27 01:10:40;;;;;;;;;6.00;5.67;;;;;-147.17;100.00;49596.03;5074172;28;51102;-67
2021/10/27 01:13:05;;;;;;;;;7.00;6.00;;;;;-147.17;100.00;49611.78;5070894;28;52879;-67
2021/10/27 01:15:31;;;;;;;;;8.67;7.00;;;;;-147.17;100.00;49570.44;5072695;28;51338;-67
2021/10/27 01:17:56;;;;;;;;;10.00;10.00;;;;;-147.17;100.00;49554.69;5060489;28;51112;-66
2021/10/27 01:20:22;;;;;;;;;8.67;8.33;;;;;-147.17;100.00;49599.97;5074599;28;51253;-67
2021/10/27 01:22:47;;;;;;;;;10.00;9.00;;;;;-147.17;100.00;49588.16;5033806;28;53234;-67
2021/10/27 01:25:13;;;;;;;;;10.67;9.67;;;;;-147.17;100.00;49621.63;5036153;28;51192;-67
2021/10/27 01:27:44;;;;;;;;;10.00;9.67;;;;;-147.17;100.00;49603.91;5056449;28;50887;-67
2021/10/27 01:30:13;;;;;;;;;10.75;8.75;;;;;-147.17;100.00;49592.09;5066136;28;50994;-67
2021/10/27 01:32:38;;;;;;;;;8.33;8.33;;;;;-147.17;100.00;49568.47;5046688;28;51948;-67
2021/10/27 01:35:06;;;;;;;;;12.00;12.00;;;;;-147.17;100.00;49584.22;5054588;28;51013;-67
2021/10/27 01:37:32;;;;;;;;;9.00;9.00;;;;;-147.17;100.00;49619.66;5051439;28;51313;-66
2021/10/27 01:39:58;;;;;;;;;14.00;11.50;;;;;-147.17;100.00;49596.03;5074286;28;52484;-66
2021/10/27 01:42:23;;;;;;;;;13.75;12.75;;;;;-147.17;100.00;49572.41;5063208;28;51207;-67
2021/10/27 01:44:49;;;;;;;;;13.50;12.00;;;;;-147.17;100.00;49609.81;5066349;28;51128;-67
2021/10/27 01:47:15;;;;;;;;;16.75;15.25;;;;;-147.17;100.00;49596.03;5061643;28;51243;-67
2021/10/27 01:49:40;;;;;;;;;14.00;13.75;;;;;-147.17;100.00;49574.38;5063672;28;53477;-67
2021/10/27 01:52:06;;;;;;;;;11.00;10.50;;;;;-147.17;100.00;49580.28;5049621;28;51748;-67
2021/10/27 01:54:32;;;;;;;;;15.00;14.25;;;;;-147.17;100.00;49574.38;5047940;28;51221;-67
2021/10/27 01:56:57;;;;;;;;;10.25;9.50;;;;;-147.17;100.00;49596.03;5065985;28;51167;-68
2021/10/27 01:59:23;;;;;;;;;13.00;13.00;;;;;-147.17;100.00;49566.50;5072797;28;51160;-67
2021/10/27 02:01:52;;;;;;;;;12.50;12.50;;;;;-147.17;100.00;49556.66;5066146;28;51122;-67
2021/10/27 02:04:19;;;;;;;;;12.50;12.25;;;;;-147.17;100.00;49596.03;5072625;28;51002;-67
2021/10/27 02:06:44;;;;;;;;;15.00;11.00;;;;;-147.17;100.00;49584.22;5071618;28;51106;-67
2021/10/27 02:09:10;;;;;;;;;14.75;13.75;;;;;-147.17;100.00;49590.13;5056926;28;51435;-66
2021/10/27 02:11:35;;;;;;;;;12.50;12.00;;;;;-147.17;100.00;49584.22;5054230;28;51078;-66
2021/10/27 02:14:00;;;;;;;;;16.00;13.75;;;;;-147.17;100.00;49582.25;5041699;28;53066;-66
2021/10/27 02:16:27;;;;;;;;;11.50;11.50;;;;;-147.17;100.00;49568.47;5067591;28;51145;-67
2021/10/27 02:18:53;;;;;;;;;14.25;13.50;;;;;-147.17;100.00;49568.47;5073815;28;51306;-66
2021/10/27 02:21:19;;;;;;;;;14.33;13.00;;;;;-147.17;100.00;49596.03;5072100;28;51165;-67
2021/10/27 02:23:45;;;;;;;;;10.50;10.00;;;;;-147.17;100.00;49611.78;5053796;28;51065;-67
2021/10/27 02:26:11;;;;;;;;;14.33;12.67;;;;;-147.17;100.00;49621.63;5054507;28;51231;-67
2021/10/27 02:28:37;;;;;;;;;12.33;11.00;;;;;-147.17;100.00;49576.34;5067780;28;51479;-67
2021/10/27 02:31:03;;;;;;;;;13.67;13.33;;;;;-147.17;100.00;49594.06;5070692;28;51346;-67
2021/10/27 02:33:28;;;;;;;;;13.00;13.00;;;;;-147.17;100.00;49594.06;5057731;28;51157;-67
2021/10/27 02:35:54;;;;;;;;;13.75;12.50;;;;;-147.17;100.00;49566.50;5053660;28;51090;-67
2021/10/27 02:38:19;;;;;;;;;10.75;10.50;;;;;-147.17;100.00;49584.22;5065145;28;51077;-68
2021/10/27 02:40:45;;;;;;;;;11.25;11.25;;;;;-147.17;100.00;49623.59;5063345;28;53254;-67
2021/10/27 02:43:11;;;;;;;;;12.75;11.50;;;;;-147.17;100.00;49611.78;5046978;28;51160;-67
2021/10/27 02:45:37;;;;;;;;;11.00;10.00;;;;;-147.17;100.00;49603.91;5051771;28;51134;-67
2021/10/27 02:48:02;;;;;;;;;11.25;11.25;;;;;-147.17;100.00;49570.44;5048839;28;51509;-67
2021/10/27 02:50:28;;;;;;;;;10.50;10.00;;;;;-147.17;100.00;49594.06;5034631;28;51168;-67
2021/10/27 02:52:53;;;;;;;;;9.67;9.67;;;;;-147.17;100.00;49601.94;5051937;28;51235;-66
2021/10/27 02:55:19;;;;;;;;;11.25;11.25;;;;;-147.17;100.00;49611.78;5056261;28;51073;-67
2021/10/27 02:57:44;;;;;;;;;10.33;10.33;;;;;-147.17;100.00;49619.66;5070298;28;51933;-67
2021/10/27 03:00:10;;;;;;;;;13.25;12.75;;;;;-147.17;100.00;49586.19;5054604;28;53299;-67
2021/10/27 03:02:37;;;;;;;;;14.00;12.50;;;;;-147.17;100.00;49605.88;5068922;28;51100;-67
2021/10/27 03:05:04;;;;;;;;;12.00;11.50;;;;;-147.17;100.00;49580.28;5054458;28;51101;-67
2021/10/27 03:07:29;;;;;;;;;16.25;15.00;;;;;-147.17;100.00;49617.69;5057383;28;51783;-67
2021/10/27 03:09:54;;;;;;;;;11.33;10.00;;;;;-147.17;100.00;49599.97;5071338;28;51273;-67
2021/10/27 03:12:20;;;;;;;;;12.00;11.25;;;;;-147.17;100.00;49596.03;5071394;28;51227;-67
2021/10/27 03:14:45;;;;;;;;;16.00;14.50;;;;;-147.17;100.00;49619.66;5055133;28;51676;-68
2021/10/27 03:17:11;;;;;;;;;7.00;7.00;;;;;-147.17;100.00;49596.03;5041559;28;51474;-67
2021/10/27 03:19:36;;;;;;;;;10.25;10.25;;;;;-147.17;100.00;49596.03;5052216;28;52139;-68
2021/10/27 03:22:02;;;;;;;;;12.50;11.25;;;;;-147.17;100.00;49603.91;5059117;28;51810;-68
2021/10/27 03:24:28;;;;;;;;;11.25;11.25;;;;;-147.17;100.00;49568.47;5037703;28;51282;-68
2021/10/27 03:26:54;;;;;;;;;16.00;15.25;;;;;-147.17;100.00;49578.31;5060435;28;51761;-68
2021/10/27 03:29:19;;;;;;;;;13.25;12.75;;;;;-147.17;100.00;49619.66;5057395;28;52810;-68
2021/10/27 03:31:45;;;;;;;;;13.25;11.50;;;;;-147.17;100.00;49568.47;5067274;28;51069;-68
2021/10/27 03:34:10;;;;;;;;;17.25;16.25;;;;;-147.17;100.00;49599.97;5046162;28;51008;-67
2021/10/27 03:36:35;;;;;;;;;16.00;15.50;;;;;-147.17;100.00;49631.47;5059479;28;51024;-67
2021/10/27 03:39:01;;;;;;;;;16.25;15.50;;;;;-147.17;100.00;49601.94;5059263;28;51076;-68
2021/10/27 03:41:26;;;;;;;;;21.75;20.00;;;;;-147.17;100.00;49596.03;5033930;28;51054;-67
2021/10/27 03:43:51;;;;;;;;;18.50;17.75;;;;;-147.17;100.00;49611.78;5070442;28;51158;-67
2021/10/27 03:46:17;;;;;;;;;19.25;18.25;;;;;-147.17;100.00;49639.34;5072663;28;51299;-67
2021/10/27 03:48:42;;;;;;;;;13.00;12.50;;;;;-147.17;100.00;49607.84;5068829;28;51565;-67
2021/10/27 03:51:11;;;;;;;;;16.75;16.50;;;;;-147.17;100.00;49631.47;5059704;28;51163;-67
2021/10/27 03:53:37;;;;;;;;;17.50;17.00;;;;;-147.17;100.00;49590.13;5070211;28;51178;-68
2021/10/27 03:56:03;;;;;;;;;18.50;18.50;;;;;-147.17;100.00;49623.59;5052769;28;51116;-67
2021/10/27 03:58:30;;;;;;;;;19.50;18.50;;;;;-147.17;100.00;49617.69;5033642;28;51032;-68
2021/10/27 04:00:56;;;;;;;;;19.50;19.25;;;;;-147.17;100.00;49627.53;5052732;28;51031;-67
2021/10/27 04:03:23;;;;;;;;;22.75;20.50;;;;;-147.17;100.00;49613.75;5053041;28;51424;-68
2021/10/27 04:05:49;;;;;;;;;20.75;19.00;;;;;-147.17;100.00;49649.19;5037363;28;50993;-68
2021/10/27 04:08:14;;;;;;;;;26.25;24.50;;;;;-147.17;100.00;49631.47;5052132;28;51671;-68
2021/10/27 04:10:40;;;;;;;;;23.50;23.00;;;;;-147.17;100.00;49611.78;5065753;28;51209;-67
2021/10/27 04:13:05;;;;;;;;;19.00;17.25;;;;;-147.17;100.00;49605.88;5060907;28;51158;-68
2021/10/27 04:15:31;;;;;;;;;17.50;16.00;;;;;-147.17;100.00;49627.53;5060152;28;51245;-67
2021/10/27 04:17:56;;;;;;;;;19.25;19.25;;;;;-147.17;100.00;49627.53;5073951;28;51811;-67
2021/10/27 04:20:22;;;;;;;;;26.25;26.00;;;;;-147.17;100.00;49625.56;5052137;28;51131;-67
2021/10/27 04:22:47;;;;;;;;;15.75;14.00;;;;;-147.17;100.00;49592.09;5059179;28;50970;-67
2021/10/27 04:25:13;;;;;;;;;19.50;17.00;;;;;-147.17;100.00;49599.97;5074649;28;50872;-67
2021/10/27 04:27:39;;;;;;;;;18.50;18.50;;;;;-147.17;100.00;49625.56;5072721;28;52035;-68
2021/10/27 04:30:07;;;;;;;;;21.75;20.25;;;;;-147.17;100.00;49603.91;5074231;28;51215;-67
2021/10/27 04:32:33;;;;;;;;;16.50;16.50;;;;;-147.17;100.00;49594.06;5048537;28;51203;-67
2021/10/27 04:34:58;;;;;;;;;44.50;36.75;;;;;-147.17;100.00;49607.84;5055620;28;51201;-68
2021/10/27 04:37:24;;;;;;;;;31.25;28.00;;;;;-147.17;100.00;49619.66;5063586;28;51164;-67
2021/10/27 04:39:50;;;;;;;;;28.00;26.75;;;;;-147.17;100.00;49611.78;5040783;28;51071;-67
2021/10/27 04:42:15;;;;;;;;;19.75;19.50;;;;;-147.17;100.00;49619.66;5064484;28;51149;-67
2021/10/27 04:44:41;;;;;;;;;24.75;19.50;;;;;-147.17;100.00;49611.78;5068151;28;51403;-67
2021/10/27 04:47:06;;;;;;;;;16.50;15.25;;;;;-147.17;100.00;49619.66;5054994;28;51738;-66
2021/10/27 04:49:32;;;;;;;;;15.50;15.50;;;;;-147.17;100.00;49598.00;5062567;28;51150;-68
2021/10/27 04:51:57;;;;;;;;;16.25;14.25;;;;;-147.17;100.00;49631.47;5062143;28;51156;-67
2021/10/27 04:54:23;;;;;;;;;15.00;14.25;;;;;-147.17;100.00;49643.28;5075703;28;51086;-66
2021/10/27 04:56:49;;;;;;;;;16.25;15.75;;;;;-147.17;100.00;49629.50;5058776;28;51143;-67
2021/10/27 04:59:15;;;;;;;;;13.25;13.00;;;;;-147.17;100.00;49611.78;5074363;28;51150;-67
2021/10/27 05:01:46;;;;;;;;;17.75;15.50;;;;;-147.17;100.00;49596.03;5060302;28;51199;-67
2021/10/27 05:04:12;;;;;;;;;16.75;15.00;;;;;-147.17;100.00;49627.53;5054410;28;51187;-67
2021/10/27 05:06:37;;;;;;;;;15.00;13.50;;;;;-147.17;100.00;49619.66;5049832;28;51159;-67
2021/10/27 05:09:03;;;;;;;;;15.25;14.00;;;;;-147.17;100.00;49625.56;5060879;28;52770;-68
2021/10/27 05:11:28;;;;;;;;;17.75;16.00;;;;;-147.17;100.00;49629.50;5064841;28;51245;-68
2021/10/27 05:13:54;;;;;;;;;13.75;13.50;;;;;-147.17;100.00;49647.22;5025667;28;51326;-68
2021/10/27 05:16:19;;;;;;;;;14.50;13.50;;;;;-147.17;100.00;49611.78;5054023;28;50979;-68
2021/10/27 05:18:45;;;;;;;;;17.00;16.00;;;;;-147.17;100.00;49639.34;5059664;28;51026;-68
2021/10/27 05:21:10;;;;;;;;;15.50;14.75;;;;;-147.17;100.00;49649.19;5074321;28;51199;-68
2021/10/27 05:23:35;;;;;;;;;18.75;18.00;;;;;-147.17;100.00;49647.22;5058920;28;51164;-68
2021/10/27 05:26:01;;;;;;;;;16.25;15.50;;;;;-147.17;100.00;49676.72;5066632;28;51941;-67
2021/10/27 05:28:27;;;;;;;;;12.00;11.75;;;;;-147.17;100.00;49676.72;5061556;28;51003;-68
2021/10/27 05:30:52;;;;;;;;;16.00;16.00;;;;;-147.17;100.00;49678.69;5053212;28;51603;-68
2021/10/27 05:33:18;;;;;;;;;16.75;14.50;;;;;-147.17;100.00;49666.88;5063095;28;50940;-68
2021/10/27 05:35:43;;;;;;;;;18.50;15.75;;;;;-147.17;100.00;49659.03;5074041;28;51946;-68
2021/10/27 05:38:09;;;;;;;;;17.25;16.50;;;;;-147.17;100.00;49682.63;5033202;28;51373;-67
2021/10/27 05:40:34;;;;;;;;;19.50;17.25;;;;;-147.17;100.00;49635.41;5054333;28;51270;-67
2021/10/27 05:43:10;;;;;;;;;20.50;17.75;;;;;-147.17;100.00;49688.53;5060102;28;51054;-67
2021/10/27 05:45:37;;;;;;;;;17.25;16.75;;;;;-147.17;100.00;49670.81;5055510;28;51401;-67
2021/10/27 05:48:05;;;;;;;;;18.50;17.25;;;;;-147.17;100.00;49680.66;5065570;28;51116;-68
2021/10/27 05:50:38;;;;;;;;;19.75;19.00;;;;;-147.17;100.00;49645.25;5052639;28;51168;-68
2021/10/27 05:55:48;;;;;;;;;19.75;19.50;;;;;-147.17;100.00;49674.75;5053383;28;51660;-68
2021/10/27 05:58:14;;;;;;;;;19.00;18.25;;;;;-147.17;100.00;49668.84;5053675;28;51044;-68
2021/10/27 06:00:41;;;;;;;;;22.75;19.50;;;;;-147.17;100.00;49686.56;5054572;28;51144;-68
2021/10/27 06:03:06;;;;;;;;;23.25;21.00;;;;;-147.17;100.00;49670.81;5062440;28;50861;-68
2021/10/27 06:05:32;;;;;;;;;17.00;15.50;;;;;-147.17;100.00;49670.81;5074243;28;51751;-68
2021/10/27 06:07:59;;;;;;;;;24.50;21.00;;;;;-147.17;100.00;49694.44;5071813;28;51765;-67
2021/10/27 06:10:25;;;;;;;;;20.25;18.75;;;;;-147.17;100.00;49716.09;5069691;28;51101;-67
2021/10/27 06:12:55;;;;;;;;;19.75;18.25;;;;;-147.17;100.00;49653.13;5053330;28;51376;-67
2021/10/27 06:15:22;;;;;;;;;21.75;21.25;;;;;-147.17;100.00;49639.34;5026515;28;53055;-66
2021/10/27 06:17:49;;;;;;;;;18.75;18.75;;;;;-147.17;100.00;49708.22;5052571;28;51097;-66
2021/10/27 06:20:14;;;;;;;;;18.00;18.00;;;;;-147.17;100.00;49647.22;5058540;28;51078;-67
2021/10/27 06:22:40;;;;;;;;;20.25;19.00;;;;;-147.17;100.00;49682.63;5053481;28;51358;-66
2021/10/27 06:25:08;;;;;;;;;22.50;19.75;;;;;-147.17;100.00;49666.88;5071555;28;52172;-66
2021/10/27 06:27:34;;;;;;;;;20.50;19.75;;;;;-147.17;100.00;49674.75;5070379;28;51165;-66
2021/10/27 06:30:16;;;;;;;;;21.00;19.25;;;;;-147.17;100.00;49692.47;5055546;28;51044;-66
2021/10/27 06:35:25;;;;;;;;;22.00;21.50;;;;;-147.17;100.00;49688.53;5062482;28;51614;-66
2021/10/27 06:38:17;;;;;;;;;21.25;20.25;;;;;-147.17;100.00;49655.09;5053567;28;51136;-66
2021/10/27 06:48:54;;;;;;;;;20.50;20.50;;;;;-147.17;100.00;49635.41;5054579;28;50901;-66
2021/10/27 06:51:19;;;;;;;;;23.25;22.25;;;;;-147.17;100.00;49670.81;5072067;28;50864;-66
2021/10/27 06:53:46;;;;;;;;;25.75;24.75;;;;;-147.17;100.00;49720.03;5060366;28;50897;-66
2021/10/27 06:56:12;;;;;;;;;22.75;21.50;;;;;-147.17;100.00;49678.69;5061922;28;51190;-66
2021/10/27 06:58:54;;;;;;;;;23.50;21.50;;;;;-147.17;100.00;49664.91;5059075;28;51448;-66
2021/10/27 07:17:13;;;;;;;;;28.00;26.75;;;;;-147.17;100.00;49651.16;5072843;28;50907;-66
2021/10/27 07:19:39;;;;;;;;;28.50;25.75;;;;;-147.17;100.00;49643.28;5041155;28;52991;-65
2021/10/27 07:22:05;;;;;;;;;22.00;21.25;;;;;-147.17;100.00;49657.06;5039572;28;51134;-65
2021/10/27 07:24:31;;;;;;;;;22.75;21.50;;;;;-147.17;100.00;49676.72;5072945;28;51179;-65
2021/10/27 07:27:01;;;;;;;;;24.75;23.25;;;;;-147.17;100.00;49653.13;5071267;28;53216;-66
2021/10/27 07:29:27;;;;;;;;;33.75;27.25;;;;;-147.17;100.00;49688.53;5071997;28;50912;-66
2021/10/27 07:31:52;;;;;;;;;27.50;25.75;;;;;-147.17;100.00;49674.75;5064743;28;50958;-66
2021/10/27 07:34:18;;;;;;;;;25.75;24.50;;;;;-147.17;100.00;49702.31;5039322;28;51056;-66
2021/10/27 07:42:14;;;;;;;;;25.25;23.50;;;;;-147.17;100.00;49625.56;5052045;28;50976;-66
2021/10/27 07:44:39;;;;;;;;;27.25;26.25;;;;;-147.17;100.00;49645.25;5052173;28;51392;-66
2021/10/27 07:47:04;;;;;;;;;28.00;26.50;;;;;-147.17;100.00;49643.28;5052360;28;51058;-66
2021/10/27 07:49:30;;;;;;;;;28.00;25.75;;;;;-147.17;100.00;49599.97;5039632;28;51168;-66
2021/10/27 07:51:55;;;;;;;;;24.25;23.50;;;;;-147.17;100.00;49619.66;5060560;28;50900;-66
2021/10/27 07:54:21;;;;;;;;;26.75;24.75;;;;;-147.17;100.00;49596.03;5052429;28;51094;-65
2021/10/27 07:56:47;;;;;;;;;31.50;25.50;;;;;-147.17;100.00;49635.41;5062843;28;51956;-65
2021/10/27 07:59:14;;;;;;;;;26.75;25.00;;;;;-147.17;100.00;49592.09;5062068;28;50924;-66
2021/10/27 08:01:40;;;;;;;;;32.00;28.00;;;;;-147.17;100.00;49615.72;5021882;28;51224;-67
2021/10/27 08:04:05;;;;;;;;;27.00;25.00;;;;;-147.17;100.00;49599.97;5051491;28;50884;-65
2021/10/27 08:06:30;;;;;;;;;29.25;27.00;;;;;-147.17;100.00;49629.50;5033558;28;53284;-65
2021/10/27 08:08:57;;;;;;;;;21.25;19.00;;;;;-147.17;100.00;49635.41;5064788;28;51209;-65
2021/10/27 08:11:24;;;;;;;;;31.00;29.00;;;;;-147.17;100.00;49601.94;5070492;28;51025;-66
2021/10/27 08:13:49;;;;;;;;;30.00;30.00;;;;;-147.17;100.00;49576.34;5060894;28;51415;-65
2021/10/27 08:16:15;;;;;;;;;31.50;30.50;;;;;-147.17;100.00;49623.59;5064440;28;51852;-65
2021/10/27 08:18:40;;;;;;;;;34.00;31.00;;;;;-147.17;100.00;49619.66;5070980;28;51040;-66
2021/10/27 08:21:06;;;;;;;;;33.50;30.50;;;;;-147.17;100.00;49603.91;5041174;28;51213;-66
2021/10/27 08:23:35;;;;;;;;;32.75;31.50;;;;;-147.17;100.00;49552.72;5052175;28;51098;-65
2021/10/27 08:26:06;;;;;;;;;27.00;26.25;;;;;-147.17;100.00;49631.47;5051028;28;52283;-66
2021/10/27 08:28:39;;;;;;;;;27.00;26.00;;;;;-147.17;100.00;49598.00;5059004;28;51077;-66
2021/10/27 08:31:25;;;;;;;;;23.00;20.50;;;;;-147.17;100.00;49678.69;5051554;28;51405;-66
2021/10/27 08:36:22;;;;;;;;;30.00;30.00;;;;;-147.17;100.00;49580.28;5051176;28;50989;-65
2021/10/27 08:38:49;;;;;;;;;30.25;28.50;;;;;-147.17;100.00;49568.47;5059922;28;51183;-66
2021/10/27 08:41:15;;;;;;;;;30.50;29.50;;;;;-147.17;100.00;49607.84;5057534;28;51241;-66
2021/10/27 08:43:40;;;;;;;;;32.00;29.25;;;;;-147.17;100.00;49623.59;5064144;28;51077;-65
2021/10/27 08:46:07;;;;;;;;;29.50;28.75;;;;;-147.17;100.00;49607.84;5033175;28;51900;-65
2021/10/27 08:48:34;;;;;;;;;32.75;30.75;;;;;-147.17;100.00;49603.91;5039136;28;51057;-66
2021/10/27 08:51:05;;;;;;;;;31.25;28.25;;;;;-147.17;100.00;49670.81;5068723;28;51074;-66
2021/10/27 08:53:33;;;;;;;;;33.25;30.50;;;;;-147.17;100.00;49662.94;5073585;28;51342;-65
2021/10/27 08:56:02;;;;;;;;;34.25;30.50;;;;;-147.17;100.00;49623.59;5064139;28;51159;-65
2021/10/27 08:58:32;;;;;;;;;33.25;31.75;;;;;-147.17;100.00;49653.13;5053573;28;51142;-67
2021/10/27 10:04:10;;;;;;;;;32.50;31.00;;;;;-147.17;100.00;49842.06;5051210;28;50975;-66
2021/10/27 10:06:41;;;;;;;;;35.00;31.75;;;;;-147.17;100.00;49836.16;5053161;28;50940;-66
2021/10/27 10:09:11;;;;;;;;;31.25;30.00;;;;;-147.17;100.00;49914.91;5064986;28;51336;-66
2021/10/27 10:11:37;;;;;;;;;31.50;29.25;;;;;-147.17;100.00;49846.00;5073628;28;51529;-66
2021/10/27 10:14:06;;;;;;;;;33.50;31.75;;;;;-147.17;100.00;49840.09;5070235;28;51946;-66
2021/10/27 10:16:36;;;;;;;;;33.75;31.00;;;;;-147.17;100.00;49851.91;5073698;28;51104;-66
2021/10/27 10:19:08;;;;;;;;;35.25;31.50;;;;;-147.17;100.00;49822.38;5059731;28;51293;-65
2021/10/27 10:21:40;;;;;;;;;34.00;31.00;;;;;-147.17;100.00;49865.69;5069430;28;50969;-66
2021/10/27 10:26:45;;;;;;;;;29.75;28.50;;;;;-147.17;100.00;49796.78;5072788;28;51065;-66
2021/10/27 10:29:42;;;;;;;;;33.25;30.75;;;;;-147.17;100.00;49855.84;5070739;28;51066;-66
2021/10/27 10:34:56;;;;;;;;;38.00;33.75;;;;;-147.17;100.00;49800.72;5072333;28;51756;-66
2021/10/27 10:38:03;;;;;;;;;35.00;30.75;;;;;-147.17;100.00;49838.13;5072842;28;51084;-69
2021/10/27 11:00:15;;;;;;;;;36.75;32.50;;;;;-147.17;100.00;49871.59;5064907;28;51128;-67
2021/10/27 11:22:52;;;;;;;;;36.50;32.50;;;;;-147.17;100.00;50009.38;5051546;28;51030;-67
2021/10/27 11:25:23;;;;;;;;;35.25;32.50;;;;;-147.17;100.00;49995.59;5055572;28;50875;-67
2021/10/27 11:42:22;;;;;;;;;24.50;23.25;;;;;-147.17;98.52;50178.66;5058812;28;51779;-67
2021/10/27 11:44:53;;;;;;;;;35.50;32.00;;;;;-147.17;96.60;50275.13;5045322;28;51096;-67
2021/10/27 11:47:36;;;;;;;;;39.25;34.75;;;;;-147.17;95.49;50263.31;5056824;28;51058;-67
2021/10/27 11:50:02;;;;;;;;;19.00;18.00;;;;;-147.17;93.24;50397.16;5055066;28;51314;-66
2021/10/27 11:52:49;;;;;;;;;17.33;16.00;;;;;-147.17;92.83;50395.19;5057579;27;51788;-66
2021/10/27 11:55:16;;;;;;;;;19.33;17.00;;;;;-147.17;91.53;50464.09;5057788;28;51334;-66
2021/10/27 11:57:44;;;;;;;;;17.67;17.33;;;;;-147.17;92.57;50393.22;5064524;28;51231;-65
2021/10/27 12:05:46;;;;;;;;;19.33;19.33;;;;;-147.17;91.67;50418.81;5054552;28;50991;-68
2021/10/27 12:10:56;;;;;;;;;16.67;16.33;;;;;-147.17;90.25;50460.16;5054008;28;51474;-67
2021/10/27 12:16:30;;;;;;;;;15.33;14.67;;;;;-147.17;88.50;50525.13;5056822;28;51194;-66
2021/10/27 12:19:05;;;;;;;;;15.00;13.67;;;;;-147.17;85.74;50621.59;5061622;28;51438;-66
2021/10/27 12:21:31;;;;;;;;;14.67;13.33;;;;;-147.17;85.64;50596.00;5051803;28;51165;-67
2021/10/27 12:24:02;;;;;;;;;11.33;11.33;;;;;-147.17;85.25;50615.69;5053935;28;51141;-66
2021/10/27 12:26:42;;;;;;;;;12.67;12.67;;;;;-147.17;84.16;50631.44;5058455;28;51123;-67
2021/10/27 12:29:12;;;;;;;;;12.67;12.33;;;;;-147.17;83.62;50666.88;5062646;28;51189;-66
2021/10/27 12:31:38;;;;;;;;;11.67;10.33;;;;;-147.17;82.30;50641.28;5067389;28;52082;-66
2021/10/27 12:34:27;;;;;;;;;12.00;12.00;;;;;-147.17;83.66;50627.50;5055099;28;53527;-66
2021/10/27 12:36:57;;;;;;;;;14.67;14.67;;;;;-147.17;83.52;50641.28;5056060;28;51146;-66
2021/10/27 12:42:01;;;;;;;;;18.67;18.33;;;;;-147.17;82.51;50643.25;5074502;28;51080;-66
2021/10/27 12:44:27;;;;;;;;;16.67;13.67;;;;;-147.17;82.41;50678.69;5064105;28;52753;-66
2021/10/27 12:47:05;;;;;;;;;13.67;13.67;;;;;-147.17;82.40;50702.31;5054358;28;50949;-66
2021/10/27 12:49:30;;;;;;;;;14.67;13.00;;;;;-147.17;83.04;50645.22;5038822;28;51264;-67
2021/10/27 12:51:56;;;;;;;;;13.33;12.33;;;;;-147.17;82.76;50647.19;5063318;28;50955;-67
2021/10/27 12:54:29;;;;;;;;;16.33;15.67;;;;;-147.17;80.95;50725.94;5067021;28;51035;-66
2021/10/27 12:57:05;;;;;;;;;15.00;14.00;;;;;-147.17;80.95;50696.41;5052765;28;51200;-68
2021/10/27 12:59:32;;;;;;;;;14.33;14.33;;;;;-147.17;79.12;50786.97;5066194;28;51395;-67
2021/10/27 13:02:18;;;;;;;;;11.67;11.67;;;;;-147.17;77.87;50848.00;5060908;28;51311;-67
2021/10/27 13:04:58;;;;;;;;;13.33;12.00;;;;;-147.17;77.91;50832.25;5055397;28;51382;-67
2021/10/27 13:07:31;;;;;;;;;15.00;15.00;;;;;-147.17;78.33;50820.44;5062850;28;51010;-66
2021/10/27 13:10:19;;;;;;;;;11.67;11.67;;;;;-147.17;78.80;50851.94;5058527;28;51203;-67
2021/10/27 13:13:03;;;;;;;;;15.67;15.00;;;;;-147.17;78.95;50788.94;5069908;28;51073;-67
2021/10/27 13:23:08;;;;;;;;;13.00;11.67;;;;;-147.17;81.39;50745.63;5053607;28;51201;-67
2021/10/27 13:31:06;;;;;;;;;14.00;13.33;;;;;-147.17;84.46;50633.41;5057599;28;50914;-67
2021/10/27 13:33:31;;;;;;;;;18.00;17.33;;;;;-147.17;85.14;50599.94;5068307;28;51278;-67
2021/10/27 13:35:57;;;;;;;;;15.00;14.00;;;;;-147.17;85.92;50584.19;5052940;28;52358;-67
2021/10/27 13:38:26;;;;;;;;;15.00;14.67;;;;;-147.17;86.52;50564.50;5053485;28;51019;-66
2021/10/27 13:40:51;;;;;;;;;14.00;13.00;;;;;-147.17;87.44;50566.47;5056054;28;51350;-66
2021/10/27 13:43:23;;;;;;;;;12.00;11.67;;;;;-147.17;87.93;50513.31;5073438;28;51530;-66
2021/10/27 14:05:55;;;;;;;;;13.00;12.00;;;;;-147.17;91.87;50450.31;5071446;28;51437;-67
2021/10/27 14:07:39;;;;;;;;;11.33;11.33;;;;;-147.17;93.25;50422.75;5055310;28;51100;-67
2021/10/27 14:10:11;;;;;;;;;10.00;9.00;;;;;-147.17;92.81;50418.81;5072968;28;50888;-67
2021/10/27 14:12:50;;;;;;;;;9.67;9.33;;;;;-147.17;92.96;50434.56;5048763;28;50939;-67
2021/10/27 14:15:34;;;;;;;;;20.67;20.00;;;;;-147.17;93.38;50434.56;5056491;28;51055;-67
2021/10/27 15:30:48;;;;;;;;;6.67;6.67;;;;;-147.17;96.40;50391.25;5061717;28;51060;-67
2021/10/27 15:33:44;;;;;;;;;7.33;7.33;;;;;-147.17;96.68;50424.72;5071829;28;52224;-67
2021/10/27 15:42:25;;;;;;;;;8.00;8.00;;;;;-147.17;96.30;50408.97;5052297;28;51012;-66
2021/10/27 15:52:25;;;;;;;;;10.33;8.67;;;;;-147.17;95.71;50434.56;5071914;28;51069;-69